Terminal Aerodrome Forecast
Issued by NWS Wilmington, NC

Home | Current Version | Previous Version | Text Only | Print | Product List | Glossary On
Versions: 1 2 3 4 5 6 7 8 9 10 11 12 13 14 15
000
FTUS42 KILM 240500
TAFMYR
TAF
KMYR 240536Z 2406/2506 02005KT P6SM SKC
     FM240900 05012KT P6SM SKC
     FM241800 15011KT P6SM SKC
     FM250200 13007KT P6SM SKC
      AMD LTD TO CLD VIS AND WIND TIL 241100=

USA.gov is the U.S. government's official web portal to all federal, state and local government web resources and services.